sensor_id;sensor_type;location;lat;lon;timestamp;P1;durP1;ratioP1;P2;durP2;ratioP2
55212;SDS011;41083;52.932;6.674;2023-08-06T00:02:07;5.93;;;3.42;;
55212;SDS011;41083;52.932;6.674;2023-08-06T00:04:32;3.78;;;2.50;;
55212;SDS011;41083;52.932;6.674;2023-08-06T00:06:58;7.28;;;3.03;;
55212;SDS011;41083;52.932;6.674;2023-08-06T00:09:23;6.55;;;3.10;;
55212;SDS011;41083;52.932;6.674;2023-08-06T00:11:49;4.60;;;2.63;;
55212;SDS011;41083;52.932;6.674;2023-08-06T00:14:15;7.45;;;3.28;;
55212;SDS011;41083;52.932;6.674;2023-08-06T00:16:45;5.45;;;2.65;;
55212;SDS011;41083;52.932;6.674;2023-08-06T00:19:11;6.65;;;2.90;;
55212;SDS011;41083;52.932;6.674;2023-08-06T00:21:37;5.65;;;2.70;;
55212;SDS011;41083;52.932;6.674;2023-08-06T00:24:02;6.00;;;3.03;;
55212;SDS011;41083;52.932;6.674;2023-08-06T00:26:28;5.68;;;3.15;;
55212;SDS011;41083;52.932;6.674;2023-08-06T00:28:54;8.32;;;2.90;;
55212;SDS011;41083;52.932;6.674;2023-08-06T00:31:19;5.75;;;3.03;;
55212;SDS011;41083;52.932;6.674;2023-08-06T00:33:45;6.88;;;3.10;;
55212;SDS011;41083;52.932;6.674;2023-08-06T00:36:11;4.70;;;2.85;;
55212;SDS011;41083;52.932;6.674;2023-08-06T00:38:36;6.82;;;3.10;;
55212;SDS011;41083;52.932;6.674;2023-08-06T00:41:02;5.85;;;3.38;;
55212;SDS011;41083;52.932;6.674;2023-08-06T00:43:27;5.53;;;2.92;;
55212;SDS011;41083;52.932;6.674;2023-08-06T00:45:53;4.97;;;2.88;;
55212;SDS011;41083;52.932;6.674;2023-08-06T00:48:19;8.73;;;2.95;;
55212;SDS011;41083;52.932;6.674;2023-08-06T00:50:45;5.07;;;2.30;;
55212;SDS011;41083;52.932;6.674;2023-08-06T00:53:11;5.13;;;2.60;;
55212;SDS011;41083;52.932;6.674;2023-08-06T00:55:37;6.50;;;3.08;;
55212;SDS011;41083;52.932;6.674;2023-08-06T00:58:03;6.63;;;2.90;;
55212;SDS011;41083;52.932;6.674;2023-08-06T01:00:29;10.85;;;2.90;;
55212;SDS011;41083;52.932;6.674;2023-08-06T01:02:55;7.88;;;2.97;;
55212;SDS011;41083;52.932;6.674;2023-08-06T01:05:21;5.72;;;2.65;;
55212;SDS011;41083;52.932;6.674;2023-08-06T01:08:10;6.57;;;3.05;;
55212;SDS011;41083;52.932;6.674;2023-08-06T01:11:14;6.20;;;3.25;;
55212;SDS011;41083;52.932;6.674;2023-08-06T01:13:59;5.25;;;3.15;;
55212;SDS011;41083;52.932;6.674;2023-08-06T01:16:40;5.20;;;2.78;;
55212;SDS011;41083;52.932;6.674;2023-08-06T01:19:15;6.10;;;2.80;;
55212;SDS011;41083;52.932;6.674;2023-08-06T01:21:42;4.20;;;2.38;;
55212;SDS011;41083;52.932;6.674;2023-08-06T01:24:07;5.85;;;2.85;;
55212;SDS011;41083;52.932;6.674;2023-08-06T01:26:35;6.05;;;2.35;;
55212;SDS011;41083;52.932;6.674;2023-08-06T01:29:23;6.07;;;2.47;;
55212;SDS011;41083;52.932;6.674;2023-08-06T01:31:58;5.38;;;2.83;;
55212;SDS011;41083;52.932;6.674;2023-08-06T01:34:25;5.25;;;2.88;;
55212;SDS011;41083;52.932;6.674;2023-08-06T01:36:55;8.05;;;3.33;;
55212;SDS011;41083;52.932;6.674;2023-08-06T01:39:21;6.63;;;2.83;;
55212;SDS011;41083;52.932;6.674;2023-08-06T01:41:48;4.90;;;2.55;;
55212;SDS011;41083;52.932;6.674;2023-08-06T01:44:14;6.55;;;3.13;;
55212;SDS011;41083;52.932;6.674;2023-08-06T01:46:40;7.05;;;3.08;;
55212;SDS011;41083;52.932;6.674;2023-08-06T01:49:06;5.47;;;2.67;;
55212;SDS011;41083;52.932;6.674;2023-08-06T01:51:32;4.63;;;2.53;;
55212;SDS011;41083;52.932;6.674;2023-08-06T01:53:57;6.00;;;2.67;;
55212;SDS011;41083;52.932;6.674;2023-08-06T01:56:23;5.82;;;2.90;;
55212;SDS011;41083;52.932;6.674;2023-08-06T01:58:49;4.57;;;2.55;;
55212;SDS011;41083;52.932;6.674;2023-08-06T02:01:14;6.13;;;2.75;;
55212;SDS011;41083;52.932;6.674;2023-08-06T02:03:40;4.95;;;2.83;;
55212;SDS011;41083;52.932;6.674;2023-08-06T02:06:05;5.43;;;2.92;;
55212;SDS011;41083;52.932;6.674;2023-08-06T02:08:31;6.38;;;2.90;;
55212;SDS011;41083;52.932;6.674;2023-08-06T02:10:56;4.90;;;2.67;;
55212;SDS011;41083;52.932;6.674;2023-08-06T02:13:23;5.45;;;2.60;;
55212;SDS011;41083;52.932;6.674;2023-08-06T02:15:49;7.32;;;3.40;;
55212;SDS011;41083;52.932;6.674;2023-08-06T02:18:15;6.30;;;2.70;;
55212;SDS011;41083;52.932;6.674;2023-08-06T02:20:41;5.65;;;2.85;;
55212;SDS011;41083;52.932;6.674;2023-08-06T02:23:07;5.93;;;2.95;;
55212;SDS011;41083;52.932;6.674;2023-08-06T02:25:33;5.40;;;2.95;;
55212;SDS011;41083;52.932;6.674;2023-08-06T02:27:58;5.22;;;2.55;;
55212;SDS011;41083;52.932;6.674;2023-08-06T02:30:24;7.85;;;3.13;;
55212;SDS011;41083;52.932;6.674;2023-08-06T02:32:50;6.90;;;3.10;;
55212;SDS011;41083;52.932;6.674;2023-08-06T02:35:15;6.70;;;2.90;;
55212;SDS011;41083;52.932;6.674;2023-08-06T02:37:41;6.28;;;2.90;;
55212;SDS011;41083;52.932;6.674;2023-08-06T02:40:07;6.78;;;3.00;;
55212;SDS011;41083;52.932;6.674;2023-08-06T02:42:32;5.28;;;2.83;;
55212;SDS011;41083;52.932;6.674;2023-08-06T02:44:58;7.30;;;3.30;;
55212;SDS011;41083;52.932;6.674;2023-08-06T02:47:24;5.30;;;2.97;;
55212;SDS011;41083;52.932;6.674;2023-08-06T02:49:49;8.07;;;3.13;;
55212;SDS011;41083;52.932;6.674;2023-08-06T02:52:15;6.93;;;2.95;;
55212;SDS011;41083;52.932;6.674;2023-08-06T02:54:41;7.50;;;3.38;;
55212;SDS011;41083;52.932;6.674;2023-08-06T02:57:07;6.30;;;2.92;;
55212;SDS011;41083;52.932;6.674;2023-08-06T02:59:33;10.07;;;3.30;;
55212;SDS011;41083;52.932;6.674;2023-08-06T03:01:58;6.45;;;3.30;;
55212;SDS011;41083;52.932;6.674;2023-08-06T03:04:24;7.10;;;3.22;;
55212;SDS011;41083;52.932;6.674;2023-08-06T03:06:50;6.20;;;3.30;;
55212;SDS011;41083;52.932;6.674;2023-08-06T03:09:16;6.97;;;3.28;;
55212;SDS011;41083;52.932;6.674;2023-08-06T03:11:42;8.43;;;3.38;;
55212;SDS011;41083;52.932;6.674;2023-08-06T03:14:08;7.97;;;3.55;;
55212;SDS011;41083;52.932;6.674;2023-08-06T03:16:33;6.57;;;3.20;;
55212;SDS011;41083;52.932;6.674;2023-08-06T03:18:59;5.82;;;3.25;;
55212;SDS011;41083;52.932;6.674;2023-08-06T03:21:24;6.57;;;3.42;;
55212;SDS011;41083;52.932;6.674;2023-08-06T03:23:50;6.15;;;3.13;;
55212;SDS011;41083;52.932;6.674;2023-08-06T03:26:15;10.88;;;3.30;;
55212;SDS011;41083;52.932;6.674;2023-08-06T03:28:41;7.50;;;3.60;;
55212;SDS011;41083;52.932;6.674;2023-08-06T03:31:07;6.35;;;3.17;;
55212;SDS011;41083;52.932;6.674;2023-08-06T03:33:32;5.13;;;2.63;;
55212;SDS011;41083;52.932;6.674;2023-08-06T03:35:58;5.18;;;2.88;;
55212;SDS011;41083;52.932;6.674;2023-08-06T03:38:24;6.88;;;3.53;;
55212;SDS011;41083;52.932;6.674;2023-08-06T03:40:50;6.63;;;3.75;;
55212;SDS011;41083;52.932;6.674;2023-08-06T03:43:15;6.25;;;3.38;;
55212;SDS011;41083;52.932;6.674;2023-08-06T03:45:41;6.25;;;3.40;;
55212;SDS011;41083;52.932;6.674;2023-08-06T03:48:07;5.25;;;2.85;;
55212;SDS011;41083;52.932;6.674;2023-08-06T03:50:33;6.05;;;3.20;;
55212;SDS011;41083;52.932;6.674;2023-08-06T03:52:59;6.80;;;2.95;;
55212;SDS011;41083;52.932;6.674;2023-08-06T03:55:25;6.95;;;3.17;;
55212;SDS011;41083;52.932;6.674;2023-08-06T03:57:51;7.82;;;2.97;;
55212;SDS011;41083;52.932;6.674;2023-08-06T04:00:16;6.30;;;3.40;;
55212;SDS011;41083;52.932;6.674;2023-08-06T04:02:42;6.70;;;2.90;;
55212;SDS011;41083;52.932;6.674;2023-08-06T04:05:08;5.65;;;2.65;;
55212;SDS011;41083;52.932;6.674;2023-08-06T04:07:34;7.78;;;3.13;;
55212;SDS011;41083;52.932;6.674;2023-08-06T04:10:00;7.88;;;3.70;;
55212;SDS011;41083;52.932;6.674;2023-08-06T04:12:27;7.10;;;3.42;;
55212;SDS011;41083;52.932;6.674;2023-08-06T04:14:54;7.30;;;3.05;;
55212;SDS011;41083;52.932;6.674;2023-08-06T04:17:20;6.60;;;2.95;;
55212;SDS011;41083;52.932;6.674;2023-08-06T04:19:50;5.95;;;3.05;;
55212;SDS011;41083;52.932;6.674;2023-08-06T04:22:17;10.40;;;3.33;;
55212;SDS011;41083;52.932;6.674;2023-08-06T04:24:43;5.18;;;2.63;;
55212;SDS011;41083;52.932;6.674;2023-08-06T04:27:10;5.07;;;2.80;;
55212;SDS011;41083;52.932;6.674;2023-08-06T04:29:36;6.60;;;3.42;;
55212;SDS011;41083;52.932;6.674;2023-08-06T04:32:02;5.75;;;3.03;;
55212;SDS011;41083;52.932;6.674;2023-08-06T04:34:28;6.03;;;3.28;;
55212;SDS011;41083;52.932;6.674;2023-08-06T04:36:54;9.65;;;2.78;;
55212;SDS011;41083;52.932;6.674;2023-08-06T04:39:21;7.25;;;3.45;;
55212;SDS011;41083;52.932;6.674;2023-08-06T04:41:46;6.05;;;3.33;;
55212;SDS011;41083;52.932;6.674;2023-08-06T04:44:12;7.70;;;3.30;;
55212;SDS011;41083;52.932;6.674;2023-08-06T04:46:38;7.05;;;3.67;;
55212;SDS011;41083;52.932;6.674;2023-08-06T04:49:03;5.57;;;3.15;;
55212;SDS011;41083;52.932;6.674;2023-08-06T04:51:29;6.57;;;3.15;;
55212;SDS011;41083;52.932;6.674;2023-08-06T04:53:56;5.95;;;3.58;;
55212;SDS011;41083;52.932;6.674;2023-08-06T04:56:22;6.55;;;3.13;;
55212;SDS011;41083;52.932;6.674;2023-08-06T04:58:47;6.47;;;3.30;;
55212;SDS011;41083;52.932;6.674;2023-08-06T05:01:13;6.30;;;3.22;;
55212;SDS011;41083;52.932;6.674;2023-08-06T05:03:39;6.85;;;3.20;;
55212;SDS011;41083;52.932;6.674;2023-08-06T05:06:05;6.45;;;3.03;;
55212;SDS011;41083;52.932;6.674;2023-08-06T05:08:30;6.10;;;3.17;;
55212;SDS011;41083;52.932;6.674;2023-08-06T05:10:56;6.05;;;3.28;;
55212;SDS011;41083;52.932;6.674;2023-08-06T05:13:21;7.50;;;3.58;;
55212;SDS011;41083;52.932;6.674;2023-08-06T05:15:47;7.72;;;3.50;;
55212;SDS011;41083;52.932;6.674;2023-08-06T05:18:13;7.65;;;3.55;;
55212;SDS011;41083;52.932;6.674;2023-08-06T05:20:39;5.95;;;3.30;;
55212;SDS011;41083;52.932;6.674;2023-08-06T05:23:05;8.00;;;3.40;;
55212;SDS011;41083;52.932;6.674;2023-08-06T05:25:31;6.50;;;3.28;;
55212;SDS011;41083;52.932;6.674;2023-08-06T05:27:57;7.20;;;3.88;;
55212;SDS011;41083;52.932;6.674;2023-08-06T05:30:22;6.20;;;3.28;;
55212;SDS011;41083;52.932;6.674;2023-08-06T05:32:48;8.88;;;3.85;;
55212;SDS011;41083;52.932;6.674;2023-08-06T05:35:13;6.75;;;3.63;;
55212;SDS011;41083;52.932;6.674;2023-08-06T05:37:39;9.15;;;3.38;;
55212;SDS011;41083;52.932;6.674;2023-08-06T05:40:05;8.30;;;3.55;;
55212;SDS011;41083;52.932;6.674;2023-08-06T05:42:30;6.70;;;3.60;;
55212;SDS011;41083;52.932;6.674;2023-08-06T05:44:56;7.68;;;3.58;;
55212;SDS011;41083;52.932;6.674;2023-08-06T05:47:22;7.25;;;3.53;;
55212;SDS011;41083;52.932;6.674;2023-08-06T05:49:47;6.03;;;3.58;;
55212;SDS011;41083;52.932;6.674;2023-08-06T05:52:13;6.50;;;3.38;;
55212;SDS011;41083;52.932;6.674;2023-08-06T05:54:38;7.57;;;3.35;;
55212;SDS011;41083;52.932;6.674;2023-08-06T05:57:05;8.25;;;3.60;;
55212;SDS011;41083;52.932;6.674;2023-08-06T05:59:31;6.95;;;3.38;;
55212;SDS011;41083;52.932;6.674;2023-08-06T06:01:57;6.43;;;3.63;;
55212;SDS011;41083;52.932;6.674;2023-08-06T06:04:22;6.35;;;3.58;;
55212;SDS011;41083;52.932;6.674;2023-08-06T06:06:48;8.13;;;3.42;;
55212;SDS011;41083;52.932;6.674;2023-08-06T06:09:14;5.78;;;3.65;;
55212;SDS011;41083;52.932;6.674;2023-08-06T06:11:39;7.70;;;3.80;;
55212;SDS011;41083;52.932;6.674;2023-08-06T06:14:05;6.80;;;4.15;;
55212;SDS011;41083;52.932;6.674;2023-08-06T06:16:30;8.80;;;3.75;;
55212;SDS011;41083;52.932;6.674;2023-08-06T06:18:56;6.65;;;3.83;;
55212;SDS011;41083;52.932;6.674;2023-08-06T06:21:22;6.15;;;3.53;;
55212;SDS011;41083;52.932;6.674;2023-08-06T06:23:48;8.18;;;4.13;;
55212;SDS011;41083;52.932;6.674;2023-08-06T06:26:14;9.68;;;4.75;;
55212;SDS011;41083;52.932;6.674;2023-08-06T06:28:40;7.25;;;3.95;;
55212;SDS011;41083;52.932;6.674;2023-08-06T06:31:05;6.68;;;3.80;;
55212;SDS011;41083;52.932;6.674;2023-08-06T06:33:31;8.23;;;3.55;;
55212;SDS011;41083;52.932;6.674;2023-08-06T06:35:56;9.40;;;3.90;;
55212;SDS011;41083;52.932;6.674;2023-08-06T06:38:22;6.93;;;3.58;;
55212;SDS011;41083;52.932;6.674;2023-08-06T06:40:56;8.45;;;3.83;;
55212;SDS011;41083;52.932;6.674;2023-08-06T06:43:23;9.25;;;4.55;;
55212;SDS011;41083;52.932;6.674;2023-08-06T06:45:55;7.43;;;3.67;;
55212;SDS011;41083;52.932;6.674;2023-08-06T06:53:16;8.65;;;4.25;;
55212;SDS011;41083;52.932;6.674;2023-08-06T06:55:41;8.73;;;4.70;;
55212;SDS011;41083;52.932;6.674;2023-08-06T06:58:07;7.05;;;4.03;;
55212;SDS011;41083;52.932;6.674;2023-08-06T07:00:35;7.43;;;4.22;;
55212;SDS011;41083;52.932;6.674;2023-08-06T07:03:02;8.13;;;4.43;;
55212;SDS011;41083;52.932;6.674;2023-08-06T07:05:27;7.35;;;4.13;;
55212;SDS011;41083;52.932;6.674;2023-08-06T07:07:53;9.00;;;4.20;;
55212;SDS011;41083;52.932;6.674;2023-08-06T07:10:18;8.60;;;3.92;;
55212;SDS011;41083;52.932;6.674;2023-08-06T07:12:44;7.22;;;4.03;;
55212;SDS011;41083;52.932;6.674;2023-08-06T07:15:10;6.78;;;3.88;;
55212;SDS011;41083;52.932;6.674;2023-08-06T07:17:36;10.18;;;4.07;;
55212;SDS011;41083;52.932;6.674;2023-08-06T07:20:01;7.95;;;4.13;;
55212;SDS011;41083;52.932;6.674;2023-08-06T07:22:27;6.32;;;3.63;;
55212;SDS011;41083;52.932;6.674;2023-08-06T07:24:53;14.45;;;4.47;;
55212;SDS011;41083;52.932;6.674;2023-08-06T07:27:19;9.63;;;4.00;;
55212;SDS011;41083;52.932;6.674;2023-08-06T07:29:44;8.30;;;3.97;;
55212;SDS011;41083;52.932;6.674;2023-08-06T07:32:10;7.65;;;3.55;;
55212;SDS011;41083;52.932;6.674;2023-08-06T07:34:35;7.18;;;4.00;;
55212;SDS011;41083;52.932;6.674;2023-08-06T07:37:01;6.00;;;3.58;;
55212;SDS011;41083;52.932;6.674;2023-08-06T07:39:26;7.93;;;3.80;;
55212;SDS011;41083;52.932;6.674;2023-08-06T07:41:53;8.15;;;3.95;;
55212;SDS011;41083;52.932;6.674;2023-08-06T07:44:19;5.82;;;3.38;;
55212;SDS011;41083;52.932;6.674;2023-08-06T07:46:45;7.15;;;3.63;;
55212;SDS011;41083;52.932;6.674;2023-08-06T07:49:10;6.35;;;3.42;;
55212;SDS011;41083;52.932;6.674;2023-08-06T07:51:36;7.93;;;4.18;;
55212;SDS011;41083;52.932;6.674;2023-08-06T07:54:02;7.82;;;3.42;;
55212;SDS011;41083;52.932;6.674;2023-08-06T07:56:28;8.93;;;3.78;;
55212;SDS011;41083;52.932;6.674;2023-08-06T07:58:53;6.53;;;3.63;;
55212;SDS011;41083;52.932;6.674;2023-08-06T08:01:19;10.27;;;3.60;;
55212;SDS011;41083;52.932;6.674;2023-08-06T08:03:45;7.22;;;4.00;;
55212;SDS011;41083;52.932;6.674;2023-08-06T08:06:10;7.05;;;3.58;;
55212;SDS011;41083;52.932;6.674;2023-08-06T08:08:36;5.93;;;3.70;;
55212;SDS011;41083;52.932;6.674;2023-08-06T08:11:03;7.63;;;4.07;;
55212;SDS011;41083;52.932;6.674;2023-08-06T08:13:29;6.07;;;3.47;;
55212;SDS011;41083;52.932;6.674;2023-08-06T08:15:58;6.57;;;4.03;;
55212;SDS011;41083;52.932;6.674;2023-08-06T08:18:24;6.55;;;3.35;;
55212;SDS011;41083;52.932;6.674;2023-08-06T08:20:50;7.55;;;3.90;;
55212;SDS011;41083;52.932;6.674;2023-08-06T08:23:16;9.77;;;3.83;;
55212;SDS011;41083;52.932;6.674;2023-08-06T08:25:41;7.15;;;3.95;;
55212;SDS011;41083;52.932;6.674;2023-08-06T08:28:07;6.57;;;3.58;;
55212;SDS011;41083;52.932;6.674;2023-08-06T08:30:33;6.25;;;3.50;;
55212;SDS011;41083;52.932;6.674;2023-08-06T08:32:58;7.25;;;3.75;;
55212;SDS011;41083;52.932;6.674;2023-08-06T08:35:24;6.43;;;3.75;;
55212;SDS011;41083;52.932;6.674;2023-08-06T08:37:50;6.20;;;3.50;;
55212;SDS011;41083;52.932;6.674;2023-08-06T08:40:16;5.60;;;3.30;;
55212;SDS011;41083;52.932;6.674;2023-08-06T08:42:42;4.90;;;3.25;;
55212;SDS011;41083;52.932;6.674;2023-08-06T08:45:11;6.40;;;3.20;;
55212;SDS011;41083;52.932;6.674;2023-08-06T08:47:40;5.90;;;3.28;;
55212;SDS011;41083;52.932;6.674;2023-08-06T08:50:08;4.80;;;3.15;;
55212;SDS011;41083;52.932;6.674;2023-08-06T08:52:35;4.47;;;3.00;;
55212;SDS011;41083;52.932;6.674;2023-08-06T08:55:03;4.90;;;2.72;;
55212;SDS011;41083;52.932;6.674;2023-08-06T08:57:29;7.25;;;3.55;;
55212;SDS011;41083;52.932;6.674;2023-08-06T08:59:54;5.50;;;3.08;;
55212;SDS011;41083;52.932;6.674;2023-08-06T09:02:20;5.93;;;3.10;;
55212;SDS011;41083;52.932;6.674;2023-08-06T09:04:47;6.00;;;2.97;;
55212;SDS011;41083;52.932;6.674;2023-08-06T09:07:14;4.05;;;2.58;;
55212;SDS011;41083;52.932;6.674;2023-08-06T09:09:44;4.55;;;2.60;;
55212;SDS011;41083;52.932;6.674;2023-08-06T09:12:14;4.55;;;2.60;;
55212;SDS011;41083;52.932;6.674;2023-08-06T09:14:41;3.65;;;2.30;;
55212;SDS011;41083;52.932;6.674;2023-08-06T09:17:07;4.85;;;2.50;;
55212;SDS011;41083;52.932;6.674;2023-08-06T09:19:35;4.63;;;2.65;;
55212;SDS011;41083;52.932;6.674;2023-08-06T09:22:01;4.70;;;2.50;;
55212;SDS011;41083;52.932;6.674;2023-08-06T09:24:27;3.70;;;2.17;;
55212;SDS011;41083;52.932;6.674;2023-08-06T09:26:53;3.08;;;2.20;;
55212;SDS011;41083;52.932;6.674;2023-08-06T09:29:19;5.28;;;2.47;;
55212;SDS011;41083;52.932;6.674;2023-08-06T09:31:46;4.07;;;2.45;;
55212;SDS011;41083;52.932;6.674;2023-08-06T09:34:16;3.80;;;2.40;;
55212;SDS011;41083;52.932;6.674;2023-08-06T09:36:53;4.90;;;2.97;;
55212;SDS011;41083;52.932;6.674;2023-08-06T09:39:20;4.93;;;2.90;;
55212;SDS011;41083;52.932;6.674;2023-08-06T09:41:47;4.63;;;2.47;;
55212;SDS011;41083;52.932;6.674;2023-08-06T09:44:16;3.60;;;2.10;;
55212;SDS011;41083;52.932;6.674;2023-08-06T09:46:56;4.38;;;2.40;;
55212;SDS011;41083;52.932;6.674;2023-08-06T09:49:26;3.35;;;2.05;;
55212;SDS011;41083;52.932;6.674;2023-08-06T09:51:53;4.00;;;2.03;;
55212;SDS011;41083;52.932;6.674;2023-08-06T09:54:24;4.32;;;2.22;;
55212;SDS011;41083;52.932;6.674;2023-08-06T09:56:55;5.88;;;2.70;;
55212;SDS011;41083;52.932;6.674;2023-08-06T09:59:24;5.00;;;2.28;;
55212;SDS011;41083;52.932;6.674;2023-08-06T10:01:50;3.90;;;2.40;;
55212;SDS011;41083;52.932;6.674;2023-08-06T10:04:16;4.32;;;2.33;;
55212;SDS011;41083;52.932;6.674;2023-08-06T10:06:43;3.92;;;1.63;;
55212;SDS011;41083;52.932;6.674;2023-08-06T10:09:11;3.72;;;1.75;;
55212;SDS011;41083;52.932;6.674;2023-08-06T10:11:37;3.03;;;2.05;;
55212;SDS011;41083;52.932;6.674;2023-08-06T10:14:06;3.05;;;1.83;;
55212;SDS011;41083;52.932;6.674;2023-08-06T10:16:36;4.18;;;1.95;;
55212;SDS011;41083;52.932;6.674;2023-08-06T10:19:04;3.38;;;1.90;;
55212;SDS011;41083;52.932;6.674;2023-08-06T10:21:31;4.70;;;1.98;;
55212;SDS011;41083;52.932;6.674;2023-08-06T10:23:57;3.40;;;2.08;;
55212;SDS011;41083;52.932;6.674;2023-08-06T10:26:29;3.28;;;1.83;;
55212;SDS011;41083;52.932;6.674;2023-08-06T10:28:55;2.80;;;1.75;;
55212;SDS011;41083;52.932;6.674;2023-08-06T10:34:20;5.35;;;2.13;;
55212;SDS011;41083;52.932;6.674;2023-08-06T10:36:45;4.70;;;1.70;;
55212;SDS011;41083;52.932;6.674;2023-08-06T10:39:13;4.50;;;1.60;;
55212;SDS011;41083;52.932;6.674;2023-08-06T10:41:40;3.67;;;1.85;;
55212;SDS011;41083;52.932;6.674;2023-08-06T10:44:08;4.70;;;2.17;;
55212;SDS011;41083;52.932;6.674;2023-08-06T10:46:34;3.80;;;2.40;;
55212;SDS011;41083;52.932;6.674;2023-08-06T10:49:00;6.28;;;3.38;;
55212;SDS011;41083;52.932;6.674;2023-08-06T10:51:26;3.55;;;1.88;;
55212;SDS011;41083;52.932;6.674;2023-08-06T10:53:52;2.65;;;1.60;;
55212;SDS011;41083;52.932;6.674;2023-08-06T10:56:19;2.60;;;1.40;;
55212;SDS011;41083;52.932;6.674;2023-08-06T10:58:47;1.98;;;1.30;;
55212;SDS011;41083;52.932;6.674;2023-08-06T11:01:13;3.00;;;1.50;;
55212;SDS011;41083;52.932;6.674;2023-08-06T11:03:40;2.30;;;1.40;;
55212;SDS011;41083;52.932;6.674;2023-08-06T11:06:07;3.88;;;1.23;;
55212;SDS011;41083;52.932;6.674;2023-08-06T11:08:33;4.40;;;1.45;;
55212;SDS011;41083;52.932;6.674;2023-08-06T11:11:10;2.85;;;1.20;;
55212;SDS011;41083;52.932;6.674;2023-08-06T11:13:38;3.03;;;1.38;;
55212;SDS011;41083;52.932;6.674;2023-08-06T11:16:07;2.78;;;1.10;;
55212;SDS011;41083;52.932;6.674;2023-08-06T11:18:34;3.20;;;1.10;;
55212;SDS011;41083;52.932;6.674;2023-08-06T11:21:00;3.08;;;1.35;;
55212;SDS011;41083;52.932;6.674;2023-08-06T11:23:27;2.25;;;1.00;;
55212;SDS011;41083;52.932;6.674;2023-08-06T11:25:57;2.15;;;1.20;;
55212;SDS011;41083;52.932;6.674;2023-08-06T11:28:23;2.05;;;1.23;;
55212;SDS011;41083;52.932;6.674;2023-08-06T11:30:49;2.00;;;1.05;;
55212;SDS011;41083;52.932;6.674;2023-08-06T11:33:21;3.90;;;2.13;;
55212;SDS011;41083;52.932;6.674;2023-08-06T11:35:50;3.63;;;1.45;;
55212;SDS011;41083;52.932;6.674;2023-08-06T11:38:16;2.45;;;1.10;;
55212;SDS011;41083;52.932;6.674;2023-08-06T11:40:49;2.78;;;1.30;;
55212;SDS011;41083;52.932;6.674;2023-08-06T11:43:15;2.13;;;0.90;;
55212;SDS011;41083;52.932;6.674;2023-08-06T11:45:43;3.22;;;1.08;;
55212;SDS011;41083;52.932;6.674;2023-08-06T11:48:09;2.47;;;1.13;;
55212;SDS011;41083;52.932;6.674;2023-08-06T11:50:38;2.90;;;1.17;;
55212;SDS011;41083;52.932;6.674;2023-08-06T11:53:04;3.58;;;1.50;;
55212;SDS011;41083;52.932;6.674;2023-08-06T11:55:30;2.65;;;1.05;;
55212;SDS011;41083;52.932;6.674;2023-08-06T11:57:57;1.95;;;0.85;;
55212;SDS011;41083;52.932;6.674;2023-08-06T12:00:23;1.70;;;0.95;;
55212;SDS011;41083;52.932;6.674;2023-08-06T12:02:50;2.22;;;0.90;;
55212;SDS011;41083;52.932;6.674;2023-08-06T12:05:21;2.92;;;1.20;;
55212;SDS011;41083;52.932;6.674;2023-08-06T12:07:54;3.10;;;1.02;;
55212;SDS011;41083;52.932;6.674;2023-08-06T12:10:24;2.58;;;1.00;;
55212;SDS011;41083;52.932;6.674;2023-08-06T12:12:50;1.88;;;1.00;;
55212;SDS011;41083;52.932;6.674;2023-08-06T12:15:16;2.88;;;1.15;;
55212;SDS011;41083;52.932;6.674;2023-08-06T12:17:42;1.80;;;1.05;;
55212;SDS011;41083;52.932;6.674;2023-08-06T12:20:09;2.08;;;1.00;;
55212;SDS011;41083;52.932;6.674;2023-08-06T12:22:35;2.35;;;1.00;;
55212;SDS011;41083;52.932;6.674;2023-08-06T12:25:02;1.80;;;1.00;;
55212;SDS011;41083;52.932;6.674;2023-08-06T12:27:32;2.33;;;1.02;;
55212;SDS011;41083;52.932;6.674;2023-08-06T12:30:01;2.05;;;1.10;;
55212;SDS011;41083;52.932;6.674;2023-08-06T12:32:28;2.67;;;1.30;;
55212;SDS011;41083;52.932;6.674;2023-08-06T12:34:54;2.88;;;0.80;;
55212;SDS011;41083;52.932;6.674;2023-08-06T12:37:20;2.67;;;1.10;;
55212;SDS011;41083;52.932;6.674;2023-08-06T12:39:46;2.45;;;1.00;;
55212;SDS011;41083;52.932;6.674;2023-08-06T12:42:11;2.05;;;1.00;;
55212;SDS011;41083;52.932;6.674;2023-08-06T12:44:37;2.05;;;0.95;;
55212;SDS011;41083;52.932;6.674;2023-08-06T12:47:03;3.83;;;1.00;;
55212;SDS011;41083;52.932;6.674;2023-08-06T12:49:28;2.45;;;1.40;;
55212;SDS011;41083;52.932;6.674;2023-08-06T12:51:55;2.15;;;1.08;;
55212;SDS011;41083;52.932;6.674;2023-08-06T12:54:22;1.77;;;0.88;;
55212;SDS011;41083;52.932;6.674;2023-08-06T12:56:47;3.00;;;0.90;;
55212;SDS011;41083;52.932;6.674;2023-08-06T12:59:14;2.50;;;0.77;;
55212;SDS011;41083;52.932;6.674;2023-08-06T13:01:40;1.88;;;0.90;;
55212;SDS011;41083;52.932;6.674;2023-08-06T13:04:06;1.92;;;1.02;;
55212;SDS011;41083;52.932;6.674;2023-08-06T13:06:32;3.28;;;0.88;;
55212;SDS011;41083;52.932;6.674;2023-08-06T13:09:04;1.73;;;0.80;;
55212;SDS011;41083;52.932;6.674;2023-08-06T13:11:33;2.85;;;1.00;;
55212;SDS011;41083;52.932;6.674;2023-08-06T13:14:09;3.17;;;0.93;;
55212;SDS011;41083;52.932;6.674;2023-08-06T13:16:36;1.60;;;0.70;;
55212;SDS011;41083;52.932;6.674;2023-08-06T13:19:03;1.38;;;0.63;;
55212;SDS011;41083;52.932;6.674;2023-08-06T13:21:33;2.85;;;0.90;;
55212;SDS011;41083;52.932;6.674;2023-08-06T13:24:10;1.88;;;0.85;;
55212;SDS011;41083;52.932;6.674;2023-08-06T13:26:36;1.92;;;1.17;;
55212;SDS011;41083;52.932;6.674;2023-08-06T13:29:02;2.03;;;0.80;;
55212;SDS011;41083;52.932;6.674;2023-08-06T13:31:28;2.15;;;1.15;;
55212;SDS011;41083;52.932;6.674;2023-08-06T13:33:54;2.95;;;0.93;;
55212;SDS011;41083;52.932;6.674;2023-08-06T13:36:20;1.98;;;0.80;;
55212;SDS011;41083;52.932;6.674;2023-08-06T13:38:47;1.67;;;0.90;;
55212;SDS011;41083;52.932;6.674;2023-08-06T13:41:12;1.60;;;0.80;;
55212;SDS011;41083;52.932;6.674;2023-08-06T13:43:38;2.78;;;0.95;;
55212;SDS011;41083;52.932;6.674;2023-08-06T13:46:04;1.63;;;0.80;;
55212;SDS011;41083;52.932;6.674;2023-08-06T13:48:30;3.33;;;1.00;;
55212;SDS011;41083;52.932;6.674;2023-08-06T13:50:56;1.58;;;0.75;;
55212;SDS011;41083;52.932;6.674;2023-08-06T13:53:21;2.40;;;1.10;;
55212;SDS011;41083;52.932;6.674;2023-08-06T13:55:47;2.75;;;0.98;;
55212;SDS011;41083;52.932;6.674;2023-08-06T13:58:12;1.98;;;1.10;;
55212;SDS011;41083;52.932;6.674;2023-08-06T14:00:38;2.58;;;0.93;;
55212;SDS011;41083;52.932;6.674;2023-08-06T14:03:04;2.72;;;0.93;;
55212;SDS011;41083;52.932;6.674;2023-08-06T14:05:29;1.40;;;0.60;;
55212;SDS011;41083;52.932;6.674;2023-08-06T14:07:55;2.15;;;0.82;;
55212;SDS011;41083;52.932;6.674;2023-08-06T14:10:20;1.25;;;0.70;;
55212;SDS011;41083;52.932;6.674;2023-08-06T14:12:46;2.30;;;1.00;;
55212;SDS011;41083;52.932;6.674;2023-08-06T14:15:11;1.58;;;0.88;;
55212;SDS011;41083;52.932;6.674;2023-08-06T14:17:37;1.77;;;0.85;;
55212;SDS011;41083;52.932;6.674;2023-08-06T14:20:03;1.70;;;0.80;;
55212;SDS011;41083;52.932;6.674;2023-08-06T14:22:30;1.95;;;0.90;;
55212;SDS011;41083;52.932;6.674;2023-08-06T14:24:57;1.77;;;0.70;;
55212;SDS011;41083;52.932;6.674;2023-08-06T14:27:23;1.70;;;0.95;;
55212;SDS011;41083;52.932;6.674;2023-08-06T14:29:48;2.70;;;0.88;;
55212;SDS011;41083;52.932;6.674;2023-08-06T14:32:14;2.00;;;0.85;;
55212;SDS011;41083;52.932;6.674;2023-08-06T14:34:42;2.53;;;1.00;;
55212;SDS011;41083;52.932;6.674;2023-08-06T14:37:11;2.85;;;0.68;;
55212;SDS011;41083;52.932;6.674;2023-08-06T14:39:36;2.53;;;0.80;;
55212;SDS011;41083;52.932;6.674;2023-08-06T14:42:03;2.05;;;0.75;;
55212;SDS011;41083;52.932;6.674;2023-08-06T14:44:29;1.20;;;0.70;;
55212;SDS011;41083;52.932;6.674;2023-08-06T14:46:55;1.70;;;0.88;;
55212;SDS011;41083;52.932;6.674;2023-08-06T14:49:20;3.17;;;0.80;;
55212;SDS011;41083;52.932;6.674;2023-08-06T14:51:46;3.17;;;1.00;;
55212;SDS011;41083;52.932;6.674;2023-08-06T14:54:12;2.22;;;0.82;;